Time;durP1;ratioP1;P1;durP2;ratioP2;P2;SDS_P1;SDS_P2;PMS_P1;PMS_P2;Temp;Humidity;BMP_temperature;BMP_pressure;BME280_temperature;BME280_humidity;BME280_pressure;Samples;Min_cycle;Max_cycle;Signal;HPM_P1;HPM_P2
2023/09/23 00:01:13;;;;;;;;;;;23.40;62.60;;;;;;5041568;28;87640;-62
2023/09/23 00:03:39;;;;;;;;;;;23.40;62.60;;;;;;5043671;27;87515;-63
2023/09/23 00:06:05;;;;;;;;;;;23.40;62.70;;;;;;5041176;27;89725;-61
2023/09/23 00:08:31;;;;;;;;;;;23.40;62.70;;;;;;5043948;27;86378;-61
2023/09/23 00:10:57;;;;;;;;;;;23.40;62.60;;;;;;5043657;27;87100;-62
2023/09/23 00:13:22;;;;;;;;;;;23.30;62.60;;;;;;5045944;28;88336;-61
2023/09/23 00:15:52;;;;;;;;;;;23.30;62.60;;;;;;5042435;27;88992;-62
2023/09/23 00:18:18;;;;;;;;;;;23.30;62.70;;;;;;5042745;28;87553;-63
2023/09/23 00:20:44;;;;;;;;;;;23.30;62.70;;;;;;5042780;27;87162;-62
2023/09/23 00:23:09;;;;;;;;;;;23.30;62.70;;;;;;5042808;27;87907;-62
2023/09/23 00:25:35;;;;;;;;;;;23.30;62.70;;;;;;5042638;27;88584;-62
2023/09/23 00:28:00;;;;;;;;;;;23.30;62.70;;;;;;5041610;28;87093;-61
2023/09/23 00:30:27;;;;;;;;;;;23.30;62.70;;;;;;5043207;27;87819;-62
2023/09/23 00:32:52;;;;;;;;;;;23.30;62.70;;;;;;5045872;28;87317;-61
2023/09/23 00:35:18;;;;;;;;;;;23.30;62.70;;;;;;5043053;28;87104;-61
2023/09/23 00:37:45;;;;;;;;;;;23.30;62.70;;;;;;5041624;27;88494;-62
2023/09/23 00:40:17;;;;;;;;;;;23.20;62.70;;;;;;5042282;28;88022;-61
2023/09/23 00:42:44;;;;;;;;;;;23.30;62.70;;;;;;5042854;28;88585;-61
2023/09/23 00:45:15;;;;;;;;;;;23.20;62.70;;;;;;5042531;27;88491;-62
2023/09/23 00:47:42;;;;;;;;;;;23.20;62.80;;;;;;5042873;27;87281;-63
2023/09/23 00:50:18;;;;;;;;;;;23.20;62.70;;;;;;5042972;27;87818;-62
2023/09/23 00:52:44;;;;;;;;;;;23.20;62.80;;;;;;5038160;28;88390;-61
2023/09/23 00:55:10;;;;;;;;;;;23.20;62.80;;;;;;5045638;27;87183;-61
2023/09/23 00:57:37;;;;;;;;;;;23.10;62.70;;;;;;5042345;27;89160;-62
2023/09/23 01:00:04;;;;;;;;;;;23.20;62.80;;;;;;5042749;28;87100;-62
2023/09/23 01:02:29;;;;;;;;;;;23.20;62.80;;;;;;5041816;28;87713;-61
2023/09/23 01:04:55;;;;;;;;;;;23.10;62.80;;;;;;5041477;27;88854;-63
2023/09/23 01:07:20;;;;;;;;;;;23.20;62.80;;;;;;5042817;27;87359;-62
2023/09/23 01:09:46;;;;;;;;;;;23.20;62.80;;;;;;5041676;27;87506;-62
2023/09/23 01:12:13;;;;;;;;;;;23.20;62.90;;;;;;5042265;27;87155;-63
2023/09/23 01:14:38;;;;;;;;;;;23.10;62.80;;;;;;5042488;27;87448;-62
2023/09/23 01:17:07;;;;;;;;;;;23.10;62.80;;;;;;5045124;27;87529;-61
2023/09/23 01:19:35;;;;;;;;;;;23.10;62.80;;;;;;5042551;28;87066;-62
2023/09/23 01:22:01;;;;;;;;;;;23.10;62.90;;;;;;5042160;28;87565;-62
2023/09/23 01:24:30;;;;;;;;;;;23.10;62.80;;;;;;5041706;28;87647;-62
2023/09/23 01:26:55;;;;;;;;;;;23.10;62.90;;;;;;5042127;27;87155;-62
2023/09/23 01:29:24;;;;;;;;;;;23.10;62.90;;;;;;5041753;28;87987;-62
2023/09/23 01:32:01;;;;;;;;;;;23.00;62.80;;;;;;5041473;27;88383;-62
2023/09/23 01:34:28;;;;;;;;;;;23.00;62.70;;;;;;5042269;27;86990;-62
2023/09/23 01:36:54;;;;;;;;;;;23.10;62.80;;;;;;5041725;27;87476;-63
2023/09/23 01:39:19;;;;;;;;;;;23.00;62.70;;;;;;5044313;28;87306;-61
2023/09/23 01:41:45;;;;;;;;;;;23.00;62.80;;;;;;5041948;28;86936;-62
2023/09/23 01:44:10;;;;;;;;;;;23.00;62.80;;;;;;5041746;28;87884;-62
2023/09/23 01:46:37;;;;;;;;;;;23.00;62.80;;;;;;5042399;28;86798;-61
2023/09/23 01:49:02;;;;;;;;;;;23.00;62.80;;;;;;5042204;28;86994;-62
2023/09/23 01:51:28;;;;;;;;;;;23.00;62.80;;;;;;5041217;28;87776;-61
2023/09/23 01:53:54;;;;;;;;;;;23.00;62.90;;;;;;5043674;27;88437;-62
2023/09/23 01:56:19;;;;;;;;;;;22.90;62.80;;;;;;5041948;27;88703;-62
2023/09/23 01:58:45;;;;;;;;;;;23.00;62.90;;;;;;5041589;27;88054;-61
2023/09/23 02:01:10;;;;;;;;;;;22.90;62.80;;;;;;5044478;28;87141;-62
2023/09/23 02:03:36;;;;;;;;;;;22.90;62.80;;;;;;5041505;28;88192;-62
2023/09/23 02:06:02;;;;;;;;;;;22.90;62.90;;;;;;5041741;28;87150;-61
2023/09/23 02:08:28;;;;;;;;;;;22.90;62.80;;;;;;5041035;27;87278;-61
2023/09/23 02:10:53;;;;;;;;;;;22.90;62.80;;;;;;5041843;28;86875;-62
2023/09/23 02:13:19;;;;;;;;;;;22.80;62.80;;;;;;5041562;28;87056;-62
2023/09/23 02:15:45;;;;;;;;;;;22.90;62.90;;;;;;5041677;28;88010;-63
2023/09/23 02:18:10;;;;;;;;;;;22.90;62.80;;;;;;5040629;28;90646;-62
2023/09/23 02:20:36;;;;;;;;;;;22.90;62.90;;;;;;5043060;27;87181;-62
2023/09/23 02:23:03;;;;;;;;;;;22.80;62.80;;;;;;5046838;27;87608;-62
2023/09/23 02:25:28;;;;;;;;;;;22.80;62.80;;;;;;5045033;28;87043;-62
2023/09/23 02:27:55;;;;;;;;;;;22.90;62.90;;;;;;5045018;28;88053;-62
2023/09/23 02:30:21;;;;;;;;;;;22.80;62.80;;;;;;5044533;27;88178;-61
2023/09/23 02:32:47;;;;;;;;;;;22.80;62.90;;;;;;5044667;27;87181;-62
2023/09/23 02:35:15;;;;;;;;;;;22.80;62.90;;;;;;5045446;28;87445;-63
2023/09/23 02:37:41;;;;;;;;;;;22.80;62.90;;;;;;5042486;28;91314;-61
2023/09/23 02:40:17;;;;;;;;;;;22.80;62.90;;;;;;5042971;27;87470;-61
2023/09/23 02:42:44;;;;;;;;;;;22.80;62.90;;;;;;5045253;28;90290;-63
2023/09/23 02:45:10;;;;;;;;;;;22.80;62.90;;;;;;5044628;27;87123;-62
2023/09/23 02:47:36;;;;;;;;;;;22.70;62.70;;;;;;5044750;27;87610;-63
2023/09/23 02:50:09;;;;;;;;;;;22.70;62.80;;;;;;5044329;27;88345;-61
2023/09/23 02:52:35;;;;;;;;;;;22.70;62.80;;;;;;5044075;27;87181;-62
2023/09/23 02:55:01;;;;;;;;;;;22.70;62.80;;;;;;5044331;27;87111;-63
2023/09/23 02:57:27;;;;;;;;;;;22.70;62.80;;;;;;5044171;28;88497;-62
2023/09/23 02:59:57;;;;;;;;;;;22.70;62.80;;;;;;5044997;27;86468;-62
2023/09/23 03:02:27;;;;;;;;;;;22.70;62.80;;;;;;5043847;27;87100;-62
2023/09/23 03:04:58;;;;;;;;;;;22.70;62.80;;;;;;5046944;27;89386;-62
2023/09/23 03:07:30;;;;;;;;;;;22.60;62.70;;;;;;5040165;28;88079;-61
2023/09/23 03:10:00;;;;;;;;;;;22.70;62.80;;;;;;5045989;27;88147;-61
2023/09/23 03:12:27;;;;;;;;;;;22.60;62.80;;;;;;5044148;28;86895;-61
2023/09/23 03:14:52;;;;;;;;;;;22.60;62.80;;;;;;5040563;28;87527;-63
2023/09/23 03:17:21;;;;;;;;;;;22.60;62.80;;;;;;5043825;28;88135;-62
2023/09/23 03:19:50;;;;;;;;;;;22.60;62.80;;;;;;5044142;28;87152;-63
2023/09/23 03:22:16;;;;;;;;;;;22.60;62.80;;;;;;5043850;27;87569;-61
2023/09/23 03:24:41;;;;;;;;;;;22.60;62.80;;;;;;5043868;27;88099;-61
2023/09/23 03:27:08;;;;;;;;;;;22.60;62.80;;;;;;5046970;27;87108;-62
2023/09/23 03:29:34;;;;;;;;;;;22.50;62.80;;;;;;5043793;27;88182;-62
2023/09/23 03:31:59;;;;;;;;;;;22.60;62.80;;;;;;5042853;27;88102;-63
2023/09/23 03:34:26;;;;;;;;;;;22.50;62.70;;;;;;5043756;28;88747;-62
2023/09/23 03:36:53;;;;;;;;;;;22.60;63.40;;;;;;5043558;28;88157;-62
2023/09/23 03:39:19;;;;;;;;;;;22.60;62.80;;;;;;5042923;28;87212;-61
2023/09/23 03:41:46;;;;;;;;;;;22.50;62.80;;;;;;5043945;28;88028;-61
2023/09/23 03:44:14;;;;;;;;;;;22.50;62.80;;;;;;5039962;28;88145;-61
2023/09/23 03:46:40;;;;;;;;;;;22.50;62.70;;;;;;5043823;27;87116;-62
2023/09/23 03:49:06;;;;;;;;;;;22.50;62.80;;;;;;5046621;27;87486;-62
2023/09/23 03:51:31;;;;;;;;;;;22.50;62.80;;;;;;5043773;28;87142;-62
2023/09/23 03:53:57;;;;;;;;;;;22.50;62.70;;;;;;5043157;28;88846;-62
2023/09/23 03:56:24;;;;;;;;;;;22.50;62.80;;;;;;5046241;27;89407;-62
2023/09/23 03:58:53;;;;;;;;;;;22.50;62.80;;;;;;5039686;28;87130;-62
2023/09/23 04:01:19;;;;;;;;;;;22.50;62.80;;;;;;5042905;27;87005;-62
2023/09/23 04:03:45;;;;;;;;;;;22.40;62.70;;;;;;5041703;28;89802;-61
2023/09/23 04:06:11;;;;;;;;;;;22.40;62.80;;;;;;5043523;27;87072;-62
2023/09/23 04:08:37;;;;;;;;;;;22.40;63.40;;;;;;5042877;27;87983;-62
2023/09/23 04:11:04;;;;;;;;;;;22.40;62.80;;;;;;5045407;28;88788;-62
2023/09/23 04:13:30;;;;;;;;;;;22.40;62.80;;;;;;5044624;27;87646;-61
2023/09/23 04:16:02;;;;;;;;;;;22.40;62.80;;;;;;5044607;27;88544;-62
2023/09/23 04:18:28;;;;;;;;;;;22.40;62.70;;;;;;5040295;28;87274;-63
2023/09/23 04:20:53;;;;;;;;;;;22.40;62.80;;;;;;5042750;27;88515;-63
2023/09/23 04:23:19;;;;;;;;;;;22.40;62.80;;;;;;5040802;27;87563;-62
2023/09/23 04:25:45;;;;;;;;;;;22.30;62.80;;;;;;5040270;27;87464;-61
2023/09/23 04:28:10;;;;;;;;;;;22.30;62.80;;;;;;5040502;28;87078;-62
2023/09/23 04:30:36;;;;;;;;;;;22.30;62.80;;;;;;5042769;28;88500;-63
2023/09/23 04:33:02;;;;;;;;;;;22.30;62.80;;;;;;5046709;27;87569;-62
2023/09/23 04:35:29;;;;;;;;;;;22.30;62.80;;;;;;5040815;27;88105;-61
2023/09/23 04:37:55;;;;;;;;;;;22.30;62.80;;;;;;5042349;27;86531;-63
2023/09/23 04:40:20;;;;;;;;;;;22.30;62.70;;;;;;5042638;28;87377;-62
2023/09/23 04:42:48;;;;;;;;;;;22.30;62.70;;;;;;5040332;27;91312;-62
2023/09/23 04:45:14;;;;;;;;;;;22.30;62.80;;;;;;5036424;27;88173;-62
2023/09/23 04:47:45;;;;;;;;;;;22.20;62.80;;;;;;5041176;28;91619;-61
2023/09/23 04:50:12;;;;;;;;;;;22.20;62.80;;;;;;5041984;27;88184;-62
2023/09/23 04:52:37;;;;;;;;;;;22.20;62.80;;;;;;5046867;27;87405;-61
2023/09/23 04:55:03;;;;;;;;;;;22.20;62.80;;;;;;5040475;27;88001;-62
2023/09/23 04:57:29;;;;;;;;;;;22.20;62.80;;;;;;5042800;27;87096;-62
2023/09/23 04:59:56;;;;;;;;;;;22.20;62.80;;;;;;5041675;27;87516;-62
2023/09/23 05:02:22;;;;;;;;;;;22.20;62.80;;;;;;5040860;27;87730;-62
2023/09/23 05:04:53;;;;;;;;;;;22.20;62.70;;;;;;5036933;27;87282;-62
2023/09/23 05:07:23;;;;;;;;;;;22.20;62.80;;;;;;5042599;28;87448;-61
2023/09/23 05:09:49;;;;;;;;;;;22.20;62.70;;;;;;5040639;27;89527;-61
2023/09/23 05:12:14;;;;;;;;;;;22.20;62.70;;;;;;5041337;27;87286;-62
2023/09/23 05:14:40;;;;;;;;;;;22.10;62.70;;;;;;5039966;27;87846;-62
2023/09/23 05:17:06;;;;;;;;;;;22.20;62.70;;;;;;5042478;27;87131;-61
2023/09/23 05:19:32;;;;;;;;;;;22.20;62.70;;;;;;5041936;27;87763;-62
2023/09/23 05:21:58;;;;;;;;;;;22.10;62.70;;;;;;5039558;27;88795;-61
2023/09/23 05:24:26;;;;;;;;;;;22.10;62.70;;;;;;5040973;27;87173;-62
2023/09/23 05:26:55;;;;;;;;;;;22.10;62.80;;;;;;5042251;27;87538;-62
2023/09/23 05:29:23;;;;;;;;;;;22.10;62.70;;;;;;5042777;27;88477;-62
2023/09/23 05:31:49;;;;;;;;;;;22.10;62.70;;;;;;5039925;27;87124;-62
2023/09/23 05:34:15;;;;;;;;;;;22.10;62.80;;;;;;5041443;28;87915;-61
2023/09/23 05:36:41;;;;;;;;;;;22.10;62.70;;;;;;5044581;27;88458;-62
2023/09/23 05:39:06;;;;;;;;;;;22.10;62.80;;;;;;5039409;27;89543;-62
2023/09/23 05:41:32;;;;;;;;;;;22.10;62.80;;;;;;5037269;27;88538;-63
2023/09/23 05:43:59;;;;;;;;;;;22.10;62.80;;;;;;5042071;27;86999;-62
2023/09/23 05:46:25;;;;;;;;;;;22.10;62.80;;;;;;5040956;27;87579;-63
2023/09/23 05:48:51;;;;;;;;;;;22.10;62.80;;;;;;5039809;27;88523;-63
2023/09/23 05:51:16;;;;;;;;;;;22.10;62.80;;;;;;5042890;27;86375;-62
2023/09/23 05:53:42;;;;;;;;;;;22.10;62.70;;;;;;5041973;27;87113;-62
2023/09/23 05:56:08;;;;;;;;;;;22.10;62.80;;;;;;5042953;27;88215;-62
2023/09/23 05:58:34;;;;;;;;;;;22.10;62.80;;;;;;5046007;27;88522;-62
2023/09/23 06:00:59;;;;;;;;;;;22.10;62.70;;;;;;5041904;27;88762;-62
2023/09/23 06:03:25;;;;;;;;;;;22.10;62.80;;;;;;5045418;27;87088;-63
2023/09/23 06:05:50;;;;;;;;;;;22.00;62.80;;;;;;5044562;27;87717;-63
2023/09/23 06:08:16;;;;;;;;;;;22.10;62.80;;;;;;5045669;27;89451;-62
2023/09/23 06:10:41;;;;;;;;;;;22.00;62.80;;;;;;5041796;27;87234;-62
2023/09/23 06:13:07;;;;;;;;;;;22.00;62.80;;;;;;5045018;28;88749;-63
2023/09/23 06:15:33;;;;;;;;;;;22.00;62.80;;;;;;5044534;27;87498;-61
2023/09/23 06:17:59;;;;;;;;;;;22.00;62.80;;;;;;5043997;27;87127;-61
2023/09/23 06:20:25;;;;;;;;;;;22.00;62.80;;;;;;5046821;27;88046;-62
2023/09/23 06:22:51;;;;;;;;;;;22.00;62.70;;;;;;5044654;27;88246;-63
2023/09/23 06:25:16;;;;;;;;;;;22.00;62.80;;;;;;5043113;27;88482;-61
2023/09/23 06:27:42;;;;;;;;;;;22.10;62.80;;;;;;5041515;27;88137;-62
2023/09/23 06:30:08;;;;;;;;;;;22.00;62.80;;;;;;5042167;28;87127;-61
2023/09/23 06:32:35;;;;;;;;;;;22.00;62.80;;;;;;5044609;27;89554;-61
2023/09/23 06:35:01;;;;;;;;;;;22.00;62.90;;;;;;5041800;27;88405;-63
2023/09/23 06:37:26;;;;;;;;;;;22.00;62.80;;;;;;5042651;27;88888;-62
2023/09/23 06:39:52;;;;;;;;;;;22.00;62.80;;;;;;5047698;28;88251;-62
2023/09/23 06:42:18;;;;;;;;;;;22.00;63.40;;;;;;5040791;27;88157;-63
2023/09/23 06:44:45;;;;;;;;;;;22.00;62.90;;;;;;5042857;27;88072;-62
2023/09/23 06:47:10;;;;;;;;;;;22.00;62.90;;;;;;5042136;27;89249;-62
2023/09/23 06:49:36;;;;;;;;;;;22.00;62.90;;;;;;5044649;27;87101;-62
2023/09/23 06:52:02;;;;;;;;;;;22.00;62.90;;;;;;5044035;27;87947;-63
2023/09/23 06:54:27;;;;;;;;;;;22.00;62.90;;;;;;5041715;27;88153;-62
2023/09/23 06:56:54;;;;;;;;;;;22.00;63.00;;;;;;5039725;27;87708;-63
2023/09/23 06:59:20;;;;;;;;;;;22.00;62.90;;;;;;5040863;28;87902;-63
2023/09/23 07:01:46;;;;;;;;;;;22.00;62.90;;;;;;5045523;27;88004;-62
2023/09/23 07:04:11;;;;;;;;;;;22.00;62.90;;;;;;5042961;27;86943;-61
2023/09/23 07:06:39;;;;;;;;;;;22.00;62.90;;;;;;5038824;28;89245;-63
2023/09/23 07:09:05;;;;;;;;;;;22.00;62.90;;;;;;5044245;27;87118;-62
2023/09/23 07:11:31;;;;;;;;;;;22.00;62.90;;;;;;5041714;27;88632;-61
2023/09/23 07:13:58;;;;;;;;;;;22.00;63.00;;;;;;5042021;27;89024;-62
2023/09/23 07:16:24;;;;;;;;;;;22.00;63.00;;;;;;5041063;28;87128;-63
2023/09/23 07:18:50;;;;;;;;;;;22.00;63.00;;;;;;5044037;28;87889;-61
2023/09/23 07:21:16;;;;;;;;;;;22.00;63.00;;;;;;5040969;27;88165;-62
2023/09/23 07:23:42;;;;;;;;;;;22.00;63.00;;;;;;5041340;28;87185;-61
2023/09/23 07:26:07;;;;;;;;;;;22.00;63.00;;;;;;5043156;27;88162;-61
2023/09/23 07:28:33;;;;;;;;;;;22.00;63.10;;;;;;5043824;27;87243;-63
2023/09/23 07:30:58;;;;;;;;;;;22.00;63.00;;;;;;5042069;27;87172;-62
2023/09/23 07:33:24;;;;;;;;;;;22.00;63.10;;;;;;5042024;27;87886;-62
2023/09/23 07:35:49;;;;;;;;;;;22.00;63.10;;;;;;5043280;27;88205;-63
2023/09/23 07:38:15;;;;;;;;;;;22.00;63.10;;;;;;5042855;27;88636;-63
2023/09/23 07:40:41;;;;;;;;;;;22.00;63.10;;;;;;5041337;27;87757;-62
2023/09/23 07:43:07;;;;;;;;;;;22.00;63.10;;;;;;5042927;27;87152;-62
2023/09/23 07:45:33;;;;;;;;;;;22.00;63.70;;;;;;5046440;27;87791;-63
2023/09/23 07:47:58;;;;;;;;;;;22.00;63.10;;;;;;5037970;27;88808;-62
2023/09/23 07:50:24;;;;;;;;;;;22.00;63.20;;;;;;5044038;27;87768;-63
2023/09/23 07:52:49;;;;;;;;;;;22.00;63.20;;;;;;5041188;27;86502;-62
2023/09/23 07:55:15;;;;;;;;;;;22.00;63.20;;;;;;5043312;28;87125;-61
2023/09/23 07:57:41;;;;;;;;;;;22.00;63.20;;;;;;5045516;27;87858;-63
2023/09/23 08:00:09;;;;;;;;;;;22.00;63.30;;;;;;5042609;27;88348;-61
2023/09/23 08:02:35;;;;;;;;;;;22.00;63.20;;;;;;5039877;27;87430;-62
2023/09/23 08:05:04;;;;;;;;;;;22.00;63.30;;;;;;5042852;28;87904;-62
2023/09/23 08:07:30;;;;;;;;;;;22.00;63.30;;;;;;5045787;28;89278;-61
2023/09/23 08:09:56;;;;;;;;;;;22.00;63.30;;;;;;5041194;27;87791;-62
2023/09/23 08:12:22;;;;;;;;;;;22.00;63.30;;;;;;5043516;27;88110;-62
2023/09/23 08:14:47;;;;;;;;;;;22.00;63.30;;;;;;5041881;27;87225;-61
2023/09/23 08:17:14;;;;;;;;;;;22.00;63.30;;;;;;5043650;28;87601;-62
2023/09/23 08:19:40;;;;;;;;;;;22.00;63.30;;;;;;5040607;27;88134;-62
2023/09/23 08:22:06;;;;;;;;;;;22.10;63.30;;;;;;5040246;27;87166;-63
2023/09/23 08:24:31;;;;;;;;;;;22.00;63.30;;;;;;5040233;28;87971;-62
2023/09/23 08:26:58;;;;;;;;;;;22.00;63.30;;;;;;5042238;27;88238;-62
2023/09/23 08:29:24;;;;;;;;;;;22.00;63.30;;;;;;5044267;27;87250;-62
2023/09/23 08:31:50;;;;;;;;;;;22.10;63.30;;;;;;5040216;27;88486;-61
2023/09/23 08:34:17;;;;;;;;;;;22.00;63.20;;;;;;5042768;28;87202;-63
2023/09/23 08:36:42;;;;;;;;;;;22.00;63.20;;;;;;5042239;28;87664;-62
2023/09/23 08:39:09;;;;;;;;;;;22.10;63.30;;;;;;5046258;27;88360;-61
2023/09/23 08:41:35;;;;;;;;;;;22.10;63.20;;;;;;5037939;27;86524;-61
2023/09/23 08:44:04;;;;;;;;;;;22.00;63.20;;;;;;5043039;28;87189;-61
2023/09/23 08:46:31;;;;;;;;;;;22.10;63.20;;;;;;5043739;27;88159;-62
2023/09/23 08:48:58;;;;;;;;;;;22.10;63.20;;;;;;5041442;27;88334;-62
2023/09/23 08:51:25;;;;;;;;;;;22.10;63.20;;;;;;5039311;27;89168;-62
2023/09/23 08:53:52;;;;;;;;;;;22.10;63.20;;;;;;5042693;27;87220;-62
2023/09/23 08:56:18;;;;;;;;;;;22.10;63.20;;;;;;5041032;27;87584;-62
2023/09/23 08:58:44;;;;;;;;;;;22.10;63.20;;;;;;5040430;27;89044;-61
2023/09/23 09:01:10;;;;;;;;;;;22.10;63.10;;;;;;5040189;28;87063;-61
2023/09/23 09:03:37;;;;;;;;;;;22.10;63.10;;;;;;5042563;27;87591;-62
2023/09/23 09:06:03;;;;;;;;;;;22.10;63.10;;;;;;5040818;27;87739;-61
2023/09/23 09:08:30;;;;;;;;;;;22.10;63.10;;;;;;5040044;27;88331;-62
2023/09/23 09:10:59;;;;;;;;;;;22.10;63.10;;;;;;5044065;27;87046;-62
2023/09/23 09:13:25;;;;;;;;;;;22.20;63.10;;;;;;5041873;27;88162;-62
2023/09/23 09:15:51;;;;;;;;;;;22.20;63.10;;;;;;5040261;27;88661;-62
2023/09/23 09:18:17;;;;;;;;;;;22.20;63.10;;;;;;5042195;27;88353;-63
2023/09/23 09:20:42;;;;;;;;;;;22.20;63.00;;;;;;5040594;28;87015;-61
2023/09/23 09:23:12;;;;;;;;;;;22.20;63.10;;;;;;5041725;27;88007;-63
2023/09/23 09:25:37;;;;;;;;;;;22.20;63.00;;;;;;5041633;27;88123;-61
2023/09/23 09:28:03;;;;;;;;;;;22.20;62.90;;;;;;5038902;27;88758;-61
2023/09/23 09:30:29;;;;;;;;;;;22.20;62.90;;;;;;5041600;28;87606;-62
2023/09/23 09:32:58;;;;;;;;;;;22.20;62.90;;;;;;5041920;27;90504;-62
2023/09/23 09:35:24;;;;;;;;;;;22.30;62.90;;;;;;5037350;27;87151;-62
2023/09/23 09:37:50;;;;;;;;;;;22.30;62.90;;;;;;5042262;27;89220;-63
2023/09/23 09:40:21;;;;;;;;;;;22.20;62.80;;;;;;5042100;28;87129;-61
2023/09/23 09:42:54;;;;;;;;;;;22.30;62.80;;;;;;5038599;27;87648;-62
2023/09/23 09:45:20;;;;;;;;;;;22.30;62.80;;;;;;5039021;27;88271;-62
2023/09/23 09:47:48;;;;;;;;;;;22.30;62.80;;;;;;5039761;28;88793;-62
2023/09/23 09:50:15;;;;;;;;;;;22.30;62.80;;;;;;5041801;27;87525;-63
2023/09/23 09:52:43;;;;;;;;;;;22.40;62.70;;;;;;5038566;27;88278;-62
2023/09/23 09:55:14;;;;;;;;;;;22.40;62.70;;;;;;5043439;27;86566;-62
2023/09/23 09:57:41;;;;;;;;;;;22.40;62.70;;;;;;5039060;28;88212;-62
2023/09/23 10:00:15;;;;;;;;;;;22.40;62.70;;;;;;5041737;27;87544;-61
2023/09/23 10:02:42;;;;;;;;;;;22.40;62.60;;;;;;5038900;27;88082;-62
2023/09/23 10:05:14;;;;;;;;;;;22.40;62.60;;;;;;5037729;27;91100;-62
2023/09/23 10:07:53;;;;;;;;;;;22.40;62.50;;;;;;5041789;27;87157;-61
2023/09/23 10:10:26;;;;;;;;;;;22.40;62.60;;;;;;5038164;28;87930;-61
2023/09/23 10:12:54;;;;;;;;;;;22.50;62.60;;;;;;5038797;27;87495;-63
2023/09/23 10:15:26;;;;;;;;;;;22.40;62.50;;;;;;5038044;27;87065;-63
2023/09/23 10:17:57;;;;;;;;;;;22.50;62.50;;;;;;5044486;27;87912;-63
2023/09/23 10:20:31;;;;;;;;;;;22.50;62.50;;;;;;5039940;27;87475;-63
2023/09/23 10:22:58;;;;;;;;;;;22.50;62.40;;;;;;5038540;27;88147;-62
2023/09/23 10:25:35;;;;;;;;;;;22.60;62.50;;;;;;5039093;27;88247;-61
2023/09/23 10:28:03;;;;;;;;;;;22.50;62.40;;;;;;5039992;28;88099;-62
2023/09/23 10:30:29;;;;;;;;;;;22.50;62.30;;;;;;5039100;27;88704;-61
2023/09/23 10:32:54;;;;;;;;;;;22.50;62.20;;;;;;5037804;27;88980;-63
2023/09/23 10:35:23;;;;;;;;;;;22.60;62.30;;;;;;5038325;28;87113;-62
2023/09/23 10:37:48;;;;;;;;;;;22.60;62.20;;;;;;5040888;28;90005;-63
2023/09/23 10:40:14;;;;;;;;;;;22.60;62.20;;;;;;5041455;27;88196;-61
2023/09/23 10:42:41;;;;;;;;;;;22.70;62.20;;;;;;5037017;27;87267;-62
2023/09/23 10:45:07;;;;;;;;;;;22.70;62.20;;;;;;5044549;28;87481;-61
2023/09/23 10:47:35;;;;;;;;;;;22.70;62.20;;;;;;5043397;27;87229;-61
2023/09/23 10:50:01;;;;;;;;;;;22.70;62.10;;;;;;5041792;27;89262;-62
2023/09/23 10:52:27;;;;;;;;;;;22.70;62.00;;;;;;5039982;28;89289;-62
2023/09/23 10:54:53;;;;;;;;;;;22.70;62.00;;;;;;5044271;28;87402;-62
2023/09/23 10:57:19;;;;;;;;;;;22.70;62.00;;;;;;5042364;27;88023;-62
2023/09/23 10:59:45;;;;;;;;;;;22.80;62.10;;;;;;5047438;27;87882;-63
2023/09/23 11:02:11;;;;;;;;;;;22.80;62.10;;;;;;5039874;27;88079;-62
2023/09/23 11:04:37;;;;;;;;;;;22.80;62.10;;;;;;5043378;27;88170;-62
2023/09/23 11:07:02;;;;;;;;;;;22.80;62.00;;;;;;5041852;27;87599;-61
2023/09/23 11:09:28;;;;;;;;;;;22.80;62.00;;;;;;5040354;27;87630;-62
2023/09/23 11:11:54;;;;;;;;;;;22.90;62.10;;;;;;5041715;28;88337;-63
2023/09/23 11:14:21;;;;;;;;;;;22.90;62.20;;;;;;5043950;28;87211;-62
2023/09/23 11:16:48;;;;;;;;;;;22.90;62.20;;;;;;5045624;27;89085;-63
2023/09/23 11:19:17;;;;;;;;;;;22.90;62.20;;;;;;5039308;27;88885;-63
2023/09/23 11:21:43;;;;;;;;;;;22.90;62.20;;;;;;5046701;28;87551;-62
2023/09/23 11:24:08;;;;;;;;;;;23.00;62.20;;;;;;5043181;27;89276;-62
2023/09/23 11:26:37;;;;;;;;;;;23.00;62.30;;;;;;5040817;28;87372;-63
2023/09/23 11:29:03;;;;;;;;;;;23.00;62.10;;;;;;5039355;27;88153;-62
2023/09/23 11:31:29;;;;;;;;;;;23.00;62.10;;;;;;5043671;27;87991;-62
2023/09/23 11:33:54;;;;;;;;;;;23.00;62.10;;;;;;5042609;27;86592;-62
2023/09/23 11:36:20;;;;;;;;;;;23.10;62.10;;;;;;5041528;27;87459;-63
2023/09/23 11:38:45;;;;;;;;;;;23.10;62.10;;;;;;5039193;28;88345;-62
2023/09/23 11:41:11;;;;;;;;;;;23.10;62.10;;;;;;5043038;28;88103;-62
2023/09/23 11:43:36;;;;;;;;;;;23.10;62.00;;;;;;5046867;27;88554;-63
2023/09/23 11:46:02;;;;;;;;;;;23.10;62.00;;;;;;5040606;27;88742;-62
2023/09/23 11:48:27;;;;;;;;;;;23.10;62.00;;;;;;5039242;28;88030;-62
2023/09/23 11:50:53;;;;;;;;;;;23.20;61.90;;;;;;5043044;28;88268;-62
2023/09/23 11:53:19;;;;;;;;;;;23.20;62.00;;;;;;5040506;27;89215;-63
2023/09/23 11:55:45;;;;;;;;;;;23.20;61.80;;;;;;5041907;27;87786;-62
2023/09/23 11:58:11;;;;;;;;;;;23.20;61.80;;;;;;5043339;27;86677;-62
2023/09/23 12:00:36;;;;;;;;;;;23.20;61.80;;;;;;5042586;27;87143;-62
2023/09/23 12:03:03;;;;;;;;;;;23.30;61.70;;;;;;5043842;27;87519;-62
2023/09/23 12:05:29;;;;;;;;;;;23.30;61.80;;;;;;5042229;28;89087;-63
2023/09/23 12:07:58;;;;;;;;;;;23.30;61.70;;;;;;5043310;28;88927;-62
2023/09/23 12:10:24;;;;;;;;;;;23.30;61.70;;;;;;5041709;27;87320;-63
2023/09/23 12:12:50;;;;;;;;;;;23.30;61.70;;;;;;5040454;27;87643;-62
2023/09/23 12:15:15;;;;;;;;;;;23.40;61.80;;;;;;5041078;27;87562;-63
2023/09/23 12:17:41;;;;;;;;;;;23.40;61.60;;;;;;5041407;28;90898;-63
2023/09/23 12:20:11;;;;;;;;;;;23.40;61.60;;;;;;5041652;27;87214;-62
2023/09/23 12:22:37;;;;;;;;;;;23.40;61.60;;;;;;5041354;27;89328;-63
2023/09/23 12:25:02;;;;;;;;;;;23.50;61.50;;;;;;5039539;27;88146;-63
2023/09/23 12:27:28;;;;;;;;;;;23.50;61.30;;;;;;5045610;27;87132;-61
2023/09/23 12:29:55;;;;;;;;;;;23.50;61.50;;;;;;5040621;27;88251;-61
2023/09/23 12:32:20;;;;;;;;;;;23.50;61.50;;;;;;5044991;27;89177;-62
2023/09/23 12:34:46;;;;;;;;;;;23.50;61.50;;;;;;5039228;28;87296;-64
2023/09/23 12:37:11;;;;;;;;;;;23.50;61.40;;;;;;5042214;27;88258;-61
2023/09/23 12:39:37;;;;;;;;;;;23.60;61.40;;;;;;5039921;27;87988;-62
2023/09/23 12:42:02;;;;;;;;;;;23.60;61.30;;;;;;5040716;27;87954;-62
2023/09/23 12:44:28;;;;;;;;;;;23.60;61.40;;;;;;5042146;27;88135;-62
2023/09/23 12:46:54;;;;;;;;;;;23.70;61.30;;;;;;5042790;28;86626;-62
2023/09/23 12:49:19;;;;;;;;;;;23.70;61.30;;;;;;5043374;27;88694;-62
2023/09/23 12:51:45;;;;;;;;;;;23.70;61.30;;;;;;5040082;27;87139;-61
2023/09/23 12:54:11;;;;;;;;;;;23.70;60.70;;;;;;5042223;27;88596;-63
2023/09/23 12:56:37;;;;;;;;;;;23.70;61.00;;;;;;5041773;27;87384;-63
2023/09/23 12:59:03;;;;;;;;;;;23.70;61.00;;;;;;5040286;27;87890;-63
2023/09/23 13:01:28;;;;;;;;;;;23.80;60.90;;;;;;5037730;27;87398;-62
2023/09/23 13:03:55;;;;;;;;;;;23.80;60.90;;;;;;5042287;28;88379;-61
2023/09/23 13:06:21;;;;;;;;;;;23.80;61.00;;;;;;5040510;27;87654;-63
2023/09/23 13:08:46;;;;;;;;;;;23.80;61.00;;;;;;5039657;27;89037;-63
2023/09/23 13:11:12;;;;;;;;;;;23.80;61.00;;;;;;5041981;27;86648;-63
2023/09/23 13:13:37;;;;;;;;;;;23.80;61.10;;;;;;5041820;28;87266;-62
2023/09/23 13:16:03;;;;;;;;;;;23.90;61.00;;;;;;5040457;27;88651;-61
2023/09/23 13:18:30;;;;;;;;;;;23.90;60.90;;;;;;5042035;27;88096;-63
2023/09/23 13:20:56;;;;;;;;;;;24.00;61.00;;;;;;5041673;27;88520;-63
2023/09/23 13:23:22;;;;;;;;;;;24.00;61.00;;;;;;5041929;27;88516;-63
2023/09/23 13:25:48;;;;;;;;;;;24.00;61.00;;;;;;5039207;27;87114;-62
2023/09/23 13:28:16;;;;;;;;;;;24.00;61.00;;;;;;5039494;27;87870;-62
2023/09/23 13:30:42;;;;;;;;;;;24.00;60.80;;;;;;5044381;27;88165;-63
2023/09/23 13:33:08;;;;;;;;;;;24.00;61.00;;;;;;5041616;27;87391;-61
2023/09/23 13:35:35;;;;;;;;;;;24.00;61.00;;;;;;5043425;27;86723;-62
2023/09/23 13:38:00;;;;;;;;;;;24.10;60.90;;;;;;5037056;27;87642;-63
2023/09/23 13:40:26;;;;;;;;;;;24.10;60.90;;;;;;5038388;28;88063;-62
2023/09/23 13:42:51;;;;;;;;;;;24.10;61.00;;;;;;5039574;27;89295;-63
2023/09/23 13:45:17;;;;;;;;;;;24.10;60.90;;;;;;5042806;27;87120;-63
2023/09/23 13:47:44;;;;;;;;;;;24.10;61.00;;;;;;5039232;27;87972;-64
2023/09/23 13:50:10;;;;;;;;;;;24.20;60.90;;;;;;5041702;28;88499;-62
2023/09/23 13:52:35;;;;;;;;;;;24.20;60.90;;;;;;5046430;27;88054;-62
2023/09/23 13:55:01;;;;;;;;;;;24.20;61.00;;;;;;5039852;27;87931;-63
2023/09/23 13:57:26;;;;;;;;;;;24.20;60.90;;;;;;5038188;27;87255;-64
2023/09/23 13:59:52;;;;;;;;;;;24.20;60.90;;;;;;5041935;28;86714;-62
2023/09/23 14:02:18;;;;;;;;;;;24.20;60.90;;;;;;5038571;27;88510;-63
2023/09/23 14:04:43;;;;;;;;;;;24.30;60.90;;;;;;5040219;27;87106;-63
2023/09/23 14:07:09;;;;;;;;;;;24.30;60.90;;;;;;5040642;28;88063;-62
2023/09/23 14:09:35;;;;;;;;;;;24.30;60.90;;;;;;5041207;28;88308;-62
2023/09/23 14:12:00;;;;;;;;;;;24.30;60.90;;;;;;5038115;27;87159;-62